createdAt,value
2017-04-03T00:00:37.320Z,1010.95
2017-04-03T00:01:37.341Z,1010.94
2017-04-03T00:02:37.360Z,1010.95
2017-04-03T00:03:37.393Z,1010.9
2017-04-03T00:04:37.405Z,1010.91
2017-04-03T00:05:37.427Z,1010.94
2017-04-03T00:06:37.448Z,1010.95
2017-04-03T00:07:37.480Z,1010.96
2017-04-03T00:08:37.490Z,1010.97
2017-04-03T00:09:37.510Z,1010.96
2017-04-03T00:10:37.537Z,1010.97
2017-04-03T00:11:37.543Z,1010.99
2017-04-03T00:12:37.564Z,1010.98
2017-04-03T00:13:37.584Z,1010.98
2017-04-03T00:14:37.604Z,1011
2017-04-03T00:15:37.624Z,1011.01
2017-04-03T00:16:37.642Z,1010.98
2017-04-03T00:17:37.669Z,1010.98
2017-04-03T00:18:37.681Z,1011
2017-04-03T00:19:37.703Z,1010.99
2017-04-03T00:20:37.722Z,1010.93
2017-04-03T00:21:37.743Z,1010.97
2017-04-03T00:22:37.763Z,1010.95
2017-04-03T00:23:37.784Z,1010.98
2017-04-03T00:24:37.803Z,1010.99
2017-04-03T00:25:37.823Z,1011
2017-04-03T00:26:37.843Z,1010.98
2017-04-03T00:27:37.864Z,1011.02
2017-04-03T00:28:37.882Z,1010.98
2017-04-03T00:29:37.903Z,1010.98
2017-04-03T00:30:37.926Z,1010.98
2017-04-03T00:31:37.946Z,1010.99
2017-04-03T00:32:37.963Z,1010.99
2017-04-03T00:33:37.984Z,1011.01
2017-04-03T00:34:38.004Z,1011.02
2017-04-03T00:35:38.027Z,1011.02
2017-04-03T00:36:38.043Z,1010.99
2017-04-03T00:37:38.064Z,1010.99
2017-04-03T00:38:38.085Z,1011
2017-04-03T00:39:38.104Z,1011.05
2017-04-03T00:40:38.124Z,1011.03
2017-04-03T00:41:38.143Z,1011.02
2017-04-03T00:42:38.180Z,1011.02
2017-04-03T00:43:38.183Z,1011.04
2017-04-03T00:44:38.203Z,1011.04
2017-04-03T00:45:38.225Z,1011.02
2017-04-03T00:46:38.244Z,1011.02
2017-04-03T00:47:38.265Z,1011.05
2017-04-03T00:48:38.284Z,1011.09
2017-04-03T00:49:38.305Z,1011.07
2017-04-03T00:50:38.324Z,1011.06
2017-04-03T00:51:38.344Z,1011.06
2017-04-03T00:52:38.364Z,1011.09
2017-04-03T00:53:38.383Z,1011.09
2017-04-03T00:54:38.405Z,1011.1
2017-04-03T00:55:38.425Z,1011.1
2017-04-03T00:56:38.449Z,1011.1
2017-04-03T00:57:38.464Z,1011.13
2017-04-03T00:58:38.483Z,1011.12
2017-04-03T00:59:38.504Z,1011.13
2017-04-03T01:00:38.525Z,1011.14
2017-04-03T01:01:38.544Z,1011.17
2017-04-03T01:02:38.565Z,1011.16
2017-04-03T01:03:38.587Z,1011.13
2017-04-03T01:04:38.605Z,1011.17
2017-04-03T01:05:38.624Z,1011.16
2017-04-03T01:06:38.647Z,1011.14
2017-04-03T01:07:38.664Z,1011.16
2017-04-03T01:08:38.683Z,1011.15
2017-04-03T01:09:38.705Z,1011.19
2017-04-03T01:10:38.725Z,1011.18
2017-04-03T01:11:38.743Z,1011.19
2017-04-03T01:12:38.764Z,1011.19
2017-04-03T01:13:38.783Z,1011.2
2017-04-03T01:14:38.804Z,1011.21
2017-04-03T01:15:38.822Z,1011.19
2017-04-03T01:16:38.844Z,1011.2
2017-04-03T01:17:38.863Z,1011.16
2017-04-03T01:18:38.883Z,1011.14
2017-04-03T01:19:38.913Z,1011.13
2017-04-03T01:20:38.923Z,1011.13
2017-04-03T01:21:38.943Z,1011.07
2017-04-03T01:22:38.963Z,1011.1
2017-04-03T01:23:39.030Z,1011.09
2017-04-03T01:24:39.002Z,1011.09
2017-04-03T01:25:39.022Z,1011.07
2017-04-03T01:26:39.040Z,1011.06
2017-04-03T01:27:39.078Z,1011.06
2017-04-03T01:28:39.081Z,1011.05
2017-04-03T01:29:39.102Z,1011.04
2017-04-03T01:30:39.120Z,1011.06
2017-04-03T01:31:39.142Z,1011.04
2017-04-03T01:32:39.172Z,1011.04
2017-04-03T01:33:39.179Z,1011.06
2017-04-03T01:34:39.213Z,1011.04
2017-04-03T01:35:39.221Z,1011.04
2017-04-03T01:36:39.240Z,1011.05
2017-04-03T01:37:39.258Z,1011.03
2017-04-03T01:38:39.279Z,1011.06
2017-04-03T01:39:39.299Z,1011.07
2017-04-03T01:40:39.318Z,1011.03
2017-04-03T01:41:39.336Z,1011.04
2017-04-03T01:42:39.359Z,1011.03
2017-04-03T01:43:39.378Z,1011.05
2017-04-03T01:44:39.397Z,1011.08
2017-04-03T01:45:39.418Z,1011.09
2017-04-03T01:46:39.442Z,1011.06
2017-04-03T01:47:39.459Z,1011.08
2017-04-03T01:48:39.475Z,1011.07
2017-04-03T01:49:39.497Z,1011.06
2017-04-03T01:50:39.517Z,1011.07
2017-04-03T01:51:39.536Z,1011.12
2017-04-03T01:52:39.554Z,1011.07
2017-04-03T01:53:39.576Z,1011.09
2017-04-03T01:54:39.595Z,1011.09
2017-04-03T01:55:39.615Z,1011.09
2017-04-03T01:56:39.633Z,1011.11
2017-04-03T01:57:39.653Z,1011.13
2017-04-03T01:58:39.674Z,1011.1
2017-04-03T01:59:39.692Z,1011.12
2017-04-03T02:00:39.717Z,1011.1
2017-04-03T02:01:39.733Z,1011.13
2017-04-03T02:02:39.971Z,1011.11
2017-04-03T02:03:39.800Z,1011.1
2017-04-03T02:04:39.795Z,1011.13
2017-04-03T02:05:39.819Z,1011.12
2017-04-03T02:06:39.836Z,1011.15
2017-04-03T02:07:39.856Z,1011.15
2017-04-03T02:08:39.875Z,1011.17
2017-04-03T02:09:39.895Z,1011.19
2017-04-03T02:10:39.910Z,1011.17
2017-04-03T02:11:39.950Z,1011.18
2017-04-03T02:12:39.949Z,1011.19
2017-04-03T02:13:39.975Z,1011.18
2017-04-03T02:14:39.989Z,1011.18
2017-04-03T02:15:40.008Z,1011.18
2017-04-03T02:16:40.029Z,1011.2
2017-04-03T02:17:40.053Z,1011.19
2017-04-03T02:18:40.075Z,1011.17
2017-04-03T02:19:40.085Z,1011.16
2017-04-03T02:20:40.112Z,1011.22
2017-04-03T02:21:40.137Z,1011.19
2017-04-03T02:22:40.145Z,1011.18
2017-04-03T02:23:40.168Z,1011.25
2017-04-03T02:24:40.185Z,1011.25
2017-04-03T02:25:40.204Z,1011.27
2017-04-03T02:26:40.223Z,1011.27
2017-04-03T02:27:40.243Z,1011.26
2017-04-03T02:28:40.374Z,1011.28
2017-04-03T02:29:40.282Z,1011.28
2017-04-03T02:30:40.301Z,1011.33
2017-04-03T02:31:40.321Z,1011.32
2017-04-03T02:32:40.339Z,1011.3
2017-04-03T02:33:40.360Z,1011.34
2017-04-03T02:34:40.429Z,1011.29
2017-04-03T02:35:40.441Z,1011.26
2017-04-03T02:36:40.418Z,1011.28
2017-04-03T02:37:40.439Z,1011.27
2017-04-03T02:38:40.459Z,1011.29
2017-04-03T02:39:40.481Z,1011.33
2017-04-03T02:40:40.498Z,1011.33
2017-04-03T02:41:40.518Z,1011.33
2017-04-03T02:42:40.537Z,1011.33
2017-04-03T02:43:40.555Z,1011.33
2017-04-03T02:44:40.575Z,1011.34
2017-04-03T02:45:40.596Z,1011.35
2017-04-03T02:46:40.618Z,1011.37
2017-04-03T02:47:40.633Z,1011.4
2017-04-03T02:48:40.652Z,1011.43
2017-04-03T02:49:40.673Z,1011.4
2017-04-03T02:50:40.692Z,1011.42
2017-04-03T02:51:40.711Z,1011.39
2017-04-03T02:52:40.731Z,1011.39
2017-04-03T02:53:40.751Z,1011.4
2017-04-03T02:54:40.770Z,1011.43
2017-04-03T02:55:40.791Z,1011.43
2017-04-03T02:56:40.808Z,1011.43
2017-04-03T02:57:40.828Z,1011.44
2017-04-03T02:58:40.847Z,1011.45
2017-04-03T02:59:40.919Z,1011.42
2017-04-03T03:00:40.886Z,1011.41
2017-04-03T03:01:40.906Z,1011.42
2017-04-03T03:02:40.924Z,1011.45
2017-04-03T03:03:40.945Z,1011.44
2017-04-03T03:04:40.964Z,1011.44
2017-04-03T03:05:40.994Z,1011.42
2017-04-03T03:06:41.012Z,1011.47
2017-04-03T03:07:41.023Z,1011.47
2017-04-03T03:08:41.040Z,1011.47
2017-04-03T03:09:41.312Z,1011.48
2017-04-03T03:10:41.080Z,1011.49
2017-04-03T03:11:41.099Z,1011.47
2017-04-03T03:12:41.119Z,1011.48
2017-04-03T03:13:41.143Z,1011.42
2017-04-03T03:14:41.161Z,1011.43
2017-04-03T03:15:41.180Z,1011.46
2017-04-03T03:16:41.196Z,1011.47
2017-04-03T03:17:41.216Z,1011.44
2017-04-03T03:18:41.236Z,1011.42
2017-04-03T03:19:41.256Z,1011.43
2017-04-03T03:20:41.275Z,1011.43
2017-04-03T03:21:41.299Z,1011.46
2017-04-03T03:22:41.314Z,1011.46
2017-04-03T03:23:41.331Z,1011.47
2017-04-03T03:24:41.354Z,1011.44
2017-04-03T03:25:41.378Z,1011.48
2017-04-03T03:26:41.390Z,1011.5
2017-04-03T03:27:41.408Z,1011.48
2017-04-03T03:28:41.428Z,1011.5
2017-04-03T03:29:41.446Z,1011.47
2017-04-03T03:30:41.464Z,1011.51
2017-04-03T03:31:41.485Z,1011.52
2017-04-03T03:32:41.504Z,1011.51
2017-04-03T03:33:41.523Z,1011.51
2017-04-03T03:34:41.542Z,1011.48
2017-04-03T03:35:41.560Z,1011.53
2017-04-03T03:36:41.581Z,1011.5
2017-04-03T03:37:41.639Z,1011.59
2017-04-03T03:38:41.618Z,1011.54
2017-04-03T03:39:41.639Z,1011.54
2017-04-03T03:40:41.658Z,1011.61
2017-04-03T03:41:41.675Z,1011.6
2017-04-03T03:42:41.695Z,1011.56
2017-04-03T03:43:41.713Z,1011.6
2017-04-03T03:44:41.733Z,1011.6
2017-04-03T03:45:41.752Z,1011.62
2017-04-03T03:46:41.772Z,1011.58
2017-04-03T03:47:41.790Z,1011.57
2017-04-03T03:48:41.809Z,1011.61
2017-04-03T03:49:41.829Z,1011.65
2017-04-03T03:50:42.069Z,1011.62
2017-04-03T03:51:41.868Z,1011.6
2017-04-03T03:52:41.895Z,1011.63
2017-04-03T03:53:41.908Z,1011.63
2017-04-03T03:54:41.964Z,1011.62
2017-04-03T03:55:41.944Z,1011.61
2017-04-03T03:56:41.960Z,1011.63
2017-04-03T03:57:41.980Z,1011.64
2017-04-03T03:58:42.000Z,1011.68
2017-04-03T03:59:42.018Z,1011.67
2017-04-03T04:00:42.037Z,1011.69
2017-04-03T04:01:42.057Z,1011.7
2017-04-03T04:02:42.075Z,1011.69
2017-04-03T04:03:42.094Z,1011.68
2017-04-03T04:04:42.112Z,1011.68
2017-04-03T04:05:42.133Z,1011.64
2017-04-03T04:06:42.152Z,1011.67
2017-04-03T04:07:42.206Z,1011.69
2017-04-03T04:08:42.190Z,1011.7
2017-04-03T04:09:42.207Z,1011.67
2017-04-03T04:10:42.248Z,1011.7
2017-04-03T04:11:42.246Z,1011.69
2017-04-03T04:12:42.266Z,1011.72
2017-04-03T04:13:42.284Z,1011.72
2017-04-03T04:14:42.302Z,1011.7
2017-04-03T04:15:42.322Z,1011.76
2017-04-03T04:16:42.340Z,1011.76
2017-04-03T04:17:42.360Z,1011.74
2017-04-03T04:18:42.378Z,1011.78
2017-04-03T04:19:42.398Z,1011.79
2017-04-03T04:20:42.417Z,1011.86
2017-04-03T04:21:42.434Z,1011.84
2017-04-03T04:22:42.452Z,1011.81
2017-04-03T04:23:42.471Z,1011.86
2017-04-03T04:24:42.492Z,1011.87
2017-04-03T04:25:42.509Z,1011.88
2017-04-03T04:26:42.529Z,1011.87
2017-04-03T04:27:42.548Z,1011.87
2017-04-03T04:28:42.566Z,1011.87
2017-04-03T04:29:42.584Z,1011.84
2017-04-03T04:30:42.645Z,1011.87
2017-04-03T04:31:42.622Z,1011.91
2017-04-03T04:32:42.640Z,1011.86
2017-04-03T04:33:42.660Z,1011.9
2017-04-03T04:34:42.678Z,1011.91
2017-04-03T04:35:42.698Z,1011.87
2017-04-03T04:36:42.714Z,1011.89
2017-04-03T04:37:42.735Z,1011.92
2017-04-03T04:38:42.752Z,1011.94
2017-04-03T04:39:42.772Z,1011.95
2017-04-03T04:40:42.789Z,1011.97
2017-04-03T04:41:42.809Z,1011.96
2017-04-03T04:42:42.828Z,1011.97
2017-04-03T04:43:42.846Z,1012.01
2017-04-03T04:44:42.890Z,1011.97
2017-04-03T04:45:42.884Z,1012.02
2017-04-03T04:46:42.903Z,1012.04
2017-04-03T04:47:42.920Z,1012.03
2017-04-03T04:48:42.938Z,1012.01
2017-04-03T04:49:42.958Z,1012.05
2017-04-03T04:50:43.017Z,1012.11
2017-04-03T04:51:42.995Z,1012.08
2017-04-03T04:52:43.012Z,1012.1
2017-04-03T04:53:43.033Z,1012.11
2017-04-03T04:54:43.050Z,1012.16
2017-04-03T04:55:43.071Z,1012.13
2017-04-03T04:56:43.088Z,1012.13
2017-04-03T04:57:43.107Z,1012.15
2017-04-03T04:58:43.126Z,1012.15
2017-04-03T04:59:43.142Z,1012.13
2017-04-03T05:00:43.162Z,1012.14
2017-04-03T05:01:43.182Z,1012.15
2017-04-03T05:02:43.199Z,1012.19
2017-04-03T05:03:43.217Z,1012.23
2017-04-03T05:04:43.237Z,1012.25
2017-04-03T05:05:43.254Z,1012.26
2017-04-03T05:06:43.271Z,1012.27
2017-04-03T05:07:43.289Z,1012.28
2017-04-03T05:08:43.308Z,1012.27
2017-04-03T05:09:43.328Z,1012.29
2017-04-03T05:10:43.345Z,1012.32
2017-04-03T05:11:43.365Z,1012.31
2017-04-03T05:12:43.384Z,1012.36
2017-04-03T05:13:43.401Z,1012.36
2017-04-03T05:14:43.441Z,1012.37
2017-04-03T05:15:43.439Z,1012.37
2017-04-03T05:16:43.455Z,1012.37
2017-04-03T05:17:43.476Z,1012.41
2017-04-03T05:18:43.491Z,1012.41
2017-04-03T05:19:43.512Z,1012.44
2017-04-03T05:20:43.530Z,1012.44
2017-04-03T05:21:43.549Z,1012.39
2017-04-03T05:22:43.567Z,1012.44
2017-04-03T05:23:43.587Z,1012.45
2017-04-03T05:24:43.605Z,1012.46
2017-04-03T05:25:43.621Z,1012.46
2017-04-03T05:26:43.640Z,1012.54
2017-04-03T05:27:43.659Z,1012.5
2017-04-03T05:28:43.676Z,1012.54
2017-04-03T05:29:43.696Z,1012.6
2017-04-03T05:30:43.713Z,1012.59
2017-04-03T05:31:43.731Z,1012.58
2017-04-03T05:32:43.750Z,1012.68
2017-04-03T05:33:43.769Z,1012.66
2017-04-03T05:34:43.787Z,1012.69
2017-04-03T05:35:43.806Z,1012.67
2017-04-03T05:36:43.823Z,1012.69
2017-04-03T05:37:43.842Z,1012.65
2017-04-03T05:38:43.859Z,1012.68
2017-04-03T05:39:43.878Z,1012.69
2017-04-03T05:40:43.897Z,1012.72
2017-04-03T05:41:43.915Z,1012.75
2017-04-03T05:42:43.933Z,1012.72
2017-04-03T05:43:43.951Z,1012.77
2017-04-03T05:44:43.970Z,1012.77
2017-04-03T05:45:43.989Z,1012.8
2017-04-03T05:46:44.008Z,1012.8
2017-04-03T05:47:44.026Z,1012.79
2017-04-03T05:48:44.045Z,1012.8
2017-04-03T05:49:44.063Z,1012.77
2017-04-03T05:50:44.079Z,1012.84
2017-04-03T05:51:44.098Z,1012.88
2017-04-03T05:52:44.116Z,1012.89
2017-04-03T05:53:44.134Z,1012.91
2017-04-03T05:54:44.153Z,1012.94
2017-04-03T05:55:44.171Z,1012.94
2017-04-03T05:56:44.188Z,1012.97
2017-04-03T05:57:44.208Z,1012.95
2017-04-03T05:58:44.226Z,1013.02
2017-04-03T05:59:44.243Z,1013.04
2017-04-03T06:00:44.303Z,1013
2017-04-03T06:01:44.279Z,1013.01
2017-04-03T06:02:44.298Z,1013.04
2017-04-03T06:03:44.317Z,1013.05
2017-04-03T06:04:44.334Z,1013.1
2017-04-03T06:05:44.354Z,1013.1
2017-04-03T06:06:44.372Z,1013.12
2017-04-03T06:07:44.392Z,1013.1
2017-04-03T06:08:44.407Z,1013.11
2017-04-03T06:09:44.425Z,1013.05
2017-04-03T06:10:44.484Z,1013.1
2017-04-03T06:11:44.460Z,1013.1
2017-04-03T06:12:44.480Z,1013.11
2017-04-03T06:13:44.498Z,1013.07
2017-04-03T06:14:44.517Z,1013.06
2017-04-03T06:15:44.535Z,1013.1
2017-04-03T06:16:44.552Z,1013.14
2017-04-03T06:17:44.572Z,1013.11
2017-04-03T06:18:44.592Z,1013.16
2017-04-03T06:19:44.609Z,1013.18
2017-04-03T06:20:44.627Z,1013.18
2017-04-03T06:21:44.644Z,1013.2
2017-04-03T06:22:44.662Z,1013.21
2017-04-03T06:23:44.681Z,1013.25
2017-04-03T06:24:44.698Z,1013.25
2017-04-03T06:25:44.717Z,1013.31
2017-04-03T06:26:44.734Z,1013.29
2017-04-03T06:27:44.753Z,1013.3
2017-04-03T06:28:44.772Z,1013.27
2017-04-03T06:29:44.788Z,1013.27
2017-04-03T06:30:44.806Z,1013.31
2017-04-03T06:31:44.826Z,1013.29
2017-04-03T06:32:44.845Z,1013.32
2017-04-03T06:33:44.861Z,1013.3
2017-04-03T06:34:44.879Z,1013.3
2017-04-03T06:35:44.898Z,1013.35
2017-04-03T06:36:44.917Z,1013.39
2017-04-03T06:37:44.934Z,1013.39
2017-04-03T06:38:44.952Z,1013.37
2017-04-03T06:39:44.969Z,1013.35
2017-04-03T06:40:44.988Z,1013.42
2017-04-03T06:41:45.010Z,1013.39
2017-04-03T06:42:45.024Z,1013.42
2017-04-03T06:43:45.043Z,1013.39
2017-04-03T06:44:45.061Z,1013.32
2017-04-03T06:45:45.079Z,1013.4
2017-04-03T06:46:45.098Z,1013.42
2017-04-03T06:47:45.115Z,1013.39
2017-04-03T06:48:45.132Z,1013.36
2017-04-03T06:49:45.153Z,1013.43
2017-04-03T06:50:45.172Z,1013.44
2017-04-03T06:51:45.193Z,1013.43
2017-04-03T06:52:45.209Z,1013.45
2017-04-03T06:53:45.226Z,1013.43
2017-04-03T06:54:45.244Z,1013.48
2017-04-03T06:55:45.261Z,1013.49
2017-04-03T06:56:45.278Z,1013.45
2017-04-03T06:57:45.296Z,1013.45
2017-04-03T06:58:45.316Z,1013.49
2017-04-03T06:59:45.333Z,1013.49
2017-04-03T07:00:45.351Z,1013.49
2017-04-03T07:01:45.370Z,1013.53
2017-04-03T07:02:45.388Z,1013.53
2017-04-03T07:03:45.406Z,1013.52
2017-04-03T07:04:45.423Z,1013.53
2017-04-03T07:05:45.442Z,1013.56
2017-04-03T07:06:45.460Z,1013.56
2017-04-03T07:07:45.479Z,1013.54
2017-04-03T07:08:45.497Z,1013.54
2017-04-03T07:09:45.517Z,1013.58
2017-04-03T07:10:45.533Z,1013.64
2017-04-03T07:11:45.552Z,1013.61
2017-04-03T07:12:45.570Z,1013.64
2017-04-03T07:13:45.589Z,1013.65
2017-04-03T07:14:45.607Z,1013.66
2017-04-03T07:15:45.701Z,1013.64
2017-04-03T07:16:45.691Z,1013.64
2017-04-03T07:17:45.661Z,1013.65
2017-04-03T07:18:45.679Z,1013.66
2017-04-03T07:19:45.697Z,1013.65
2017-04-03T07:20:45.720Z,1013.7
2017-04-03T07:21:45.735Z,1013.68
2017-04-03T07:22:45.754Z,1013.69
2017-04-03T07:23:45.772Z,1013.76
2017-04-03T07:24:45.789Z,1013.71
2017-04-03T07:25:45.808Z,1013.73
2017-04-03T07:26:45.837Z,1013.72
2017-04-03T07:27:45.845Z,1013.71
2017-04-03T07:28:45.862Z,1013.68
2017-04-03T07:29:45.881Z,1013.72
2017-04-03T07:30:45.901Z,1013.71
2017-04-03T07:31:45.918Z,1013.74
2017-04-03T07:32:45.936Z,1013.74
2017-04-03T07:33:45.954Z,1013.77
2017-04-03T07:34:45.974Z,1013.8
2017-04-03T07:35:45.992Z,1013.76
2017-04-03T07:36:46.016Z,1013.82
2017-04-03T07:37:46.028Z,1013.79
2017-04-03T07:38:46.048Z,1013.83
2017-04-03T07:39:46.067Z,1013.84
2017-04-03T07:40:46.084Z,1013.86
2017-04-03T07:41:46.103Z,1013.88
2017-04-03T07:42:46.120Z,1013.85
2017-04-03T07:43:46.139Z,1013.9
2017-04-03T07:44:46.159Z,1013.87
2017-04-03T07:45:46.179Z,1013.92
2017-04-03T07:46:46.195Z,1013.95
2017-04-03T07:47:46.214Z,1014.01
2017-04-03T07:48:46.233Z,1013.95
2017-04-03T07:49:46.251Z,1014.02
2017-04-03T07:50:46.270Z,1014.01
2017-04-03T07:51:46.288Z,1014.01
2017-04-03T07:52:46.308Z,1014.09
2017-04-03T07:53:46.325Z,1014.1
2017-04-03T07:54:46.343Z,1014.09
2017-04-03T07:55:46.362Z,1014.14
2017-04-03T07:56:46.381Z,1014.19
2017-04-03T07:57:46.404Z,1014.16
2017-04-03T07:58:46.419Z,1014.16
2017-04-03T07:59:46.438Z,1014.21
2017-04-03T08:00:46.457Z,1014.17
2017-04-03T08:01:46.475Z,1014.21
2017-04-03T08:02:46.494Z,1014.19
2017-04-03T08:03:46.514Z,1014.2
2017-04-03T08:04:46.532Z,1014.19
2017-04-03T08:05:46.551Z,1014.23
2017-04-03T08:06:46.570Z,1014.26
2017-04-03T08:07:46.590Z,1014.24
2017-04-03T08:08:46.607Z,1014.26
2017-04-03T08:09:46.627Z,1014.27
2017-04-03T08:10:46.646Z,1014.3
2017-04-03T08:11:46.663Z,1014.32
2017-04-03T08:12:46.684Z,1014.38
2017-04-03T08:13:46.702Z,1014.4
2017-04-03T08:14:46.720Z,1014.35
2017-04-03T08:15:46.740Z,1014.37
2017-04-03T08:16:46.759Z,1014.37
2017-04-03T08:17:46.787Z,1014.41
2017-04-03T08:18:46.796Z,1014.43
2017-04-03T08:19:46.815Z,1014.43
2017-04-03T08:20:46.834Z,1014.46
2017-04-03T08:21:46.855Z,1014.55
2017-04-03T08:22:46.874Z,1014.49
2017-04-03T08:23:46.898Z,1014.46
2017-04-03T08:24:46.912Z,1014.52
2017-04-03T08:25:46.929Z,1014.54
2017-04-03T08:26:46.948Z,1014.55
2017-04-03T08:27:46.969Z,1014.48
2017-04-03T08:28:46.988Z,1014.49
2017-04-03T08:29:47.046Z,1014.52
2017-04-03T08:30:47.025Z,1014.54
2017-04-03T08:31:47.044Z,1014.51
2017-04-03T08:32:47.064Z,1014.53
2017-04-03T08:33:47.083Z,1014.52
2017-04-03T08:34:47.101Z,1014.49
2017-04-03T08:35:47.120Z,1014.49
2017-04-03T08:36:47.168Z,1014.51
2017-04-03T08:37:47.158Z,1014.5
2017-04-03T08:38:47.178Z,1014.49
2017-04-03T08:39:47.197Z,1014.48
2017-04-03T08:40:47.218Z,1014.48
2017-04-03T08:41:47.236Z,1014.48
2017-04-03T08:42:47.299Z,1014.51
2017-04-03T08:43:47.275Z,1014.58
2017-04-03T08:44:47.296Z,1014.54
2017-04-03T08:45:47.314Z,1014.57
2017-04-03T08:46:47.332Z,1014.58
2017-04-03T08:47:47.353Z,1014.57
2017-04-03T08:48:47.369Z,1014.57
2017-04-03T08:49:47.392Z,1014.61
2017-04-03T08:50:47.408Z,1014.62
2017-04-03T08:51:47.429Z,1014.62
2017-04-03T08:52:47.447Z,1014.63
2017-04-03T08:53:47.467Z,1014.61
2017-04-03T08:54:47.487Z,1014.61
2017-04-03T08:55:47.507Z,1014.64
2017-04-03T08:56:47.527Z,1014.65
2017-04-03T08:57:47.546Z,1014.65
2017-04-03T08:58:47.565Z,1014.67
2017-04-03T08:59:47.584Z,1014.61
2017-04-03T09:00:47.604Z,1014.68
2017-04-03T09:01:47.624Z,1014.65
2017-04-03T09:02:47.643Z,1014.65
2017-04-03T09:03:47.661Z,1014.64
2017-04-03T09:04:47.680Z,1014.66
2017-04-03T09:05:47.700Z,1014.69
2017-04-03T09:06:47.720Z,1014.67
2017-04-03T09:07:47.739Z,1014.7
2017-04-03T09:08:47.758Z,1014.71
2017-04-03T09:09:47.779Z,1014.73
2017-04-03T09:10:47.797Z,1014.73
2017-04-03T09:11:47.817Z,1014.72
2017-04-03T09:12:47.836Z,1014.7
2017-04-03T09:13:47.855Z,1014.7
2017-04-03T09:14:47.873Z,1014.67
2017-04-03T09:15:47.895Z,1014.69
2017-04-03T09:16:47.914Z,1014.7
2017-04-03T09:17:47.934Z,1014.72
2017-04-03T09:18:47.953Z,1014.71
2017-04-03T09:19:47.977Z,1014.72
2017-04-03T09:20:47.991Z,1014.73
2017-04-03T09:21:48.015Z,1014.71
2017-04-03T09:22:48.031Z,1014.78
2017-04-03T09:23:48.050Z,1014.73
2017-04-03T09:24:48.069Z,1014.78
2017-04-03T09:25:48.087Z,1014.73
2017-04-03T09:26:48.111Z,1014.74
2017-04-03T09:27:48.129Z,1014.71
2017-04-03T09:28:48.146Z,1014.74
2017-04-03T09:29:48.167Z,1014.77
2017-04-03T09:30:48.186Z,1014.74
2017-04-03T09:31:48.206Z,1014.78
2017-04-03T09:32:48.225Z,1014.78
2017-04-03T09:33:48.283Z,1014.75
2017-04-03T09:34:48.264Z,1014.76
2017-04-03T09:35:48.285Z,1014.76
2017-04-03T09:36:48.304Z,1014.73
2017-04-03T09:37:48.323Z,1014.74
2017-04-03T09:38:48.342Z,1014.71
2017-04-03T09:39:48.361Z,1014.71
2017-04-03T09:40:48.381Z,1014.72
2017-04-03T09:41:48.401Z,1014.71
2017-04-03T09:42:48.424Z,1014.68
2017-04-03T09:43:48.440Z,1014.67
2017-04-03T09:44:48.460Z,1014.66
2017-04-03T09:45:48.481Z,1014.69
2017-04-03T09:46:48.500Z,1014.66
2017-04-03T09:47:48.519Z,1014.67
2017-04-03T09:48:48.541Z,1014.7
2017-04-03T09:49:48.558Z,1014.75
2017-04-03T09:50:48.576Z,1014.72
2017-04-03T09:51:48.598Z,1014.73
2017-04-03T09:52:48.616Z,1014.68
2017-04-03T09:53:48.636Z,1014.69
2017-04-03T09:54:48.655Z,1014.7
2017-04-03T09:55:48.675Z,1014.7
2017-04-03T09:56:48.695Z,1014.71
2017-04-03T09:57:48.716Z,1014.71
2017-04-03T09:58:48.733Z,1014.68
2017-04-03T09:59:48.754Z,1014.68
2017-04-03T10:00:48.774Z,1014.66
2017-04-03T10:01:48.792Z,1014.68
2017-04-03T10:02:48.814Z,1014.66
2017-04-03T10:03:48.833Z,1014.69
2017-04-03T10:04:48.851Z,1014.68
2017-04-03T10:05:48.914Z,1014.68
2017-04-03T10:06:48.890Z,1014.67
2017-04-03T10:07:48.911Z,1014.69
2017-04-03T10:08:48.930Z,1014.67
2017-04-03T10:09:48.950Z,1014.68
2017-04-03T10:10:48.971Z,1014.69
2017-04-03T10:11:48.991Z,1014.76
2017-04-03T10:12:49.009Z,1014.76
2017-04-03T10:13:49.029Z,1014.77
2017-04-03T10:14:49.048Z,1014.71
2017-04-03T10:15:49.069Z,1014.73
2017-04-03T10:16:49.088Z,1014.77
2017-04-03T10:17:49.108Z,1014.75
2017-04-03T10:18:49.129Z,1014.75
2017-04-03T10:19:49.146Z,1014.74
2017-04-03T10:20:49.167Z,1014.79
2017-04-03T10:21:49.188Z,1014.78
2017-04-03T10:22:49.207Z,1014.75
2017-04-03T10:23:49.228Z,1014.8
2017-04-03T10:24:49.246Z,1014.78
2017-04-03T10:25:49.266Z,1014.8
2017-04-03T10:26:49.286Z,1014.77
2017-04-03T10:27:49.305Z,1014.79
2017-04-03T10:28:49.325Z,1014.8
2017-04-03T10:29:49.345Z,1014.81
2017-04-03T10:30:49.366Z,1014.8
2017-04-03T10:31:49.385Z,1014.82
2017-04-03T10:32:49.405Z,1014.84
2017-04-03T10:33:49.426Z,1014.82
2017-04-03T10:34:49.444Z,1014.85
2017-04-03T10:35:49.465Z,1014.82
2017-04-03T10:36:49.485Z,1014.81
2017-04-03T10:37:49.505Z,1014.79
2017-04-03T10:38:49.523Z,1014.82
2017-04-03T10:39:49.543Z,1014.82
2017-04-03T10:40:49.564Z,1014.81
2017-04-03T10:41:49.583Z,1014.84
2017-04-03T10:42:49.605Z,1014.88
2017-04-03T10:43:49.624Z,1014.88
2017-04-03T10:44:49.644Z,1014.89
2017-04-03T10:45:49.661Z,1014.89
2017-04-03T10:46:49.684Z,1014.86
2017-04-03T10:47:49.703Z,1014.9
2017-04-03T10:48:49.723Z,1014.92
2017-04-03T10:49:49.741Z,1014.9
2017-04-03T10:50:49.762Z,1014.91
2017-04-03T10:51:49.783Z,1014.92
2017-04-03T10:52:49.801Z,1014.91
2017-04-03T10:53:49.837Z,1014.93
2017-04-03T10:54:49.841Z,1014.92
2017-04-03T10:55:49.861Z,1014.96
2017-04-03T10:56:49.880Z,1014.91
2017-04-03T10:57:49.900Z,1014.91
2017-04-03T10:58:49.920Z,1014.9
2017-04-03T10:59:49.941Z,1014.95
2017-04-03T11:00:49.960Z,1014.91
2017-04-03T11:01:49.980Z,1014.89
2017-04-03T11:02:50.000Z,1014.88
2017-04-03T11:03:50.020Z,1014.88
2017-04-03T11:04:50.039Z,1014.87
2017-04-03T11:05:50.061Z,1014.87
2017-04-03T11:06:50.080Z,1014.87
2017-04-03T11:07:50.099Z,1014.81
2017-04-03T11:08:50.120Z,1014.83
2017-04-03T11:09:50.138Z,1014.84
2017-04-03T11:10:50.160Z,1014.87
2017-04-03T11:11:50.181Z,1014.91
2017-04-03T11:12:50.199Z,1014.88
2017-04-03T11:13:50.220Z,1014.86
2017-04-03T11:14:50.238Z,1014.86
2017-04-03T11:15:50.258Z,1014.88
2017-04-03T11:16:50.277Z,1014.87
2017-04-03T11:17:50.299Z,1014.87
2017-04-03T11:18:50.318Z,1014.89
2017-04-03T11:19:50.338Z,1014.92
2017-04-03T11:20:50.358Z,1014.87
2017-04-03T11:21:50.377Z,1014.91
2017-04-03T11:22:50.397Z,1014.88
2017-04-03T11:23:50.417Z,1014.92
2017-04-03T11:24:50.437Z,1014.92
2017-04-03T11:25:50.456Z,1014.92
2017-04-03T11:26:50.477Z,1014.94
2017-04-03T11:27:50.497Z,1014.94
2017-04-03T11:28:50.518Z,1014.98
2017-04-03T11:29:50.534Z,1014.97
2017-04-03T11:30:50.560Z,1014.94
2017-04-03T11:31:50.576Z,1014.94
2017-04-03T11:32:50.595Z,1014.93
2017-04-03T11:33:50.615Z,1014.95
2017-04-03T11:34:50.637Z,1014.92
2017-04-03T11:35:50.656Z,1014.93
2017-04-03T11:36:50.676Z,1014.89
2017-04-03T11:37:50.694Z,1014.87
2017-04-03T11:38:50.714Z,1014.88
2017-04-03T11:39:50.735Z,1014.88
2017-04-03T11:40:50.753Z,1014.89
2017-04-03T11:41:50.773Z,1014.9
2017-04-03T11:42:50.795Z,1014.88
2017-04-03T11:43:50.816Z,1014.88
2017-04-03T11:44:50.834Z,1014.91
2017-04-03T11:45:50.852Z,1014.92
2017-04-03T11:46:50.873Z,1014.86
2017-04-03T11:47:50.892Z,1014.9
2017-04-03T11:48:50.911Z,1014.86
2017-04-03T11:49:50.933Z,1014.89
2017-04-03T11:50:50.955Z,1014.89
2017-04-03T11:51:50.972Z,1014.9
2017-04-03T11:52:50.991Z,1014.89
2017-04-03T11:53:51.013Z,1014.91
2017-04-03T11:54:51.032Z,1014.91
2017-04-03T11:55:51.053Z,1014.92
2017-04-03T11:56:51.071Z,1014.89
2017-04-03T11:57:51.091Z,1014.9
2017-04-03T11:58:51.109Z,1014.9
2017-04-03T11:59:51.130Z,1014.89
2017-04-03T12:00:51.150Z,1014.91
2017-04-03T12:01:51.171Z,1014.89
2017-04-03T12:02:51.190Z,1014.87
2017-04-03T12:03:51.208Z,1014.89
2017-04-03T12:04:51.229Z,1014.87
2017-04-03T12:05:51.249Z,1014.87
2017-04-03T12:06:51.269Z,1014.86
2017-04-03T12:07:51.288Z,1014.83
2017-04-03T12:08:51.310Z,1014.8